sensor_id;sensor_type;location;lat;lon;timestamp;pressure;altitude;pressure_sealevel;temperature;humidity
51526;BME280;37611;51.794;21.590;2022-12-13T00:02:40;98959.23;;;-1.63;100.00
51526;BME280;37611;51.794;21.590;2022-12-13T00:06:42;98962.27;;;-1.67;100.00
51526;BME280;37611;51.794;21.590;2022-12-13T00:10:44;98964.64;;;-1.67;100.00
51526;BME280;37611;51.794;21.590;2022-12-13T00:14:46;98970.72;;;-1.63;100.00
51526;BME280;37611;51.794;21.590;2022-12-13T00:18:49;98977.52;;;-1.57;100.00
51526;BME280;37611;51.794;21.590;2022-12-13T00:22:51;98975.89;;;-1.53;100.00
51526;BME280;37611;51.794;21.590;2022-12-13T00:26:54;98979.88;;;-1.53;100.00
51526;BME280;37611;51.794;21.590;2022-12-13T00:30:58;98982.27;;;-1.53;100.00
51526;BME280;37611;51.794;21.590;2022-12-13T00:35:00;98980.66;;;-1.57;100.00
51526;BME280;37611;51.794;21.590;2022-12-13T00:39:02;98977.73;;;-1.65;100.00
51526;BME280;37611;51.794;21.590;2022-12-13T00:43:04;98986.88;;;-1.68;100.00
51526;BME280;37611;51.794;21.590;2022-12-13T00:47:06;98996.03;;;-1.66;100.00
51526;BME280;37611;51.794;21.590;2022-12-13T00:51:09;98996.20;;;-1.64;100.00
51526;BME280;37611;51.794;21.590;2022-12-13T00:55:11;98994.48;;;-1.61;100.00
51526;BME280;37611;51.794;21.590;2022-12-13T00:59:13;98997.61;;;-1.67;100.00
51526;BME280;37611;51.794;21.590;2022-12-13T01:03:16;99003.84;;;-1.76;100.00
51526;BME280;37611;51.794;21.590;2022-12-13T01:07:20;99008.73;;;-1.85;100.00
51526;BME280;37611;51.794;21.590;2022-12-13T01:11:22;99009.19;;;-1.89;100.00
51526;BME280;37611;51.794;21.590;2022-12-13T01:15:24;99010.00;;;-1.86;100.00
51526;BME280;37611;51.794;21.590;2022-12-13T01:19:27;99006.73;;;-1.81;100.00
51526;BME280;37611;51.794;21.590;2022-12-13T01:23:29;99007.66;;;-1.77;100.00
51526;BME280;37611;51.794;21.590;2022-12-13T01:27:31;99012.06;;;-1.78;100.00
51526;BME280;37611;51.794;21.590;2022-12-13T01:31:33;99014.42;;;-1.80;100.00
51526;BME280;37611;51.794;21.590;2022-12-13T01:35:35;99015.23;;;-1.85;100.00
51526;BME280;37611;51.794;21.590;2022-12-13T01:39:37;99015.18;;;-1.89;100.00
51526;BME280;37611;51.794;21.590;2022-12-13T01:47:46;99011.96;;;-1.90;100.00
51526;BME280;37611;51.794;21.590;2022-12-13T01:51:52;99016.36;;;-1.86;100.00
51526;BME280;37611;51.794;21.590;2022-12-13T01:55:57;99018.77;;;-1.81;100.00
51526;BME280;37611;51.794;21.590;2022-12-13T02:00:03;99027.85;;;-1.81;100.00
51526;BME280;37611;51.794;21.590;2022-12-13T02:04:06;99030.95;;;-1.84;100.00
51526;BME280;37611;51.794;21.590;2022-12-13T02:08:10;99035.09;;;-1.89;100.00
51526;BME280;37611;51.794;21.590;2022-12-13T02:12:12;99036.91;;;-1.94;100.00
51526;BME280;37611;51.794;21.590;2022-12-13T02:24:45;99051.72;;;-1.95;100.00
51526;BME280;37611;51.794;21.590;2022-12-13T02:37:58;99055.58;;;-1.93;100.00
51526;BME280;37611;51.794;21.590;2022-12-13T02:42:20;99059.48;;;-1.95;100.00
51526;BME280;37611;51.794;21.590;2022-12-13T02:46:26;99066.06;;;-2.00;100.00
51526;BME280;37611;51.794;21.590;2022-12-13T02:50:30;99064.38;;;-2.02;100.00
51526;BME280;37611;51.794;21.590;2022-12-13T02:54:34;99073.70;;;-2.01;100.00
51526;BME280;37611;51.794;21.590;2022-12-13T02:58:41;99079.48;;;-2.00;100.00
51526;BME280;37611;51.794;21.590;2022-12-13T03:07:18;99086.48;;;-1.91;100.00
51526;BME280;37611;51.794;21.590;2022-12-13T03:11:27;99086.39;;;-1.95;100.00
51526;BME280;37611;51.794;21.590;2022-12-13T03:15:56;99085.12;;;-1.97;100.00
51526;BME280;37611;51.794;21.590;2022-12-13T03:19:59;99090.48;;;-1.98;100.00
51526;BME280;37611;51.794;21.590;2022-12-13T03:24:01;99092.18;;;-2.00;100.00
51526;BME280;37611;51.794;21.590;2022-12-13T03:28:03;99090.79;;;-2.00;100.00
51526;BME280;37611;51.794;21.590;2022-12-13T03:32:04;99097.77;;;-1.99;100.00
51526;BME280;37611;51.794;21.590;2022-12-13T03:36:07;99097.30;;;-1.94;100.00
51526;BME280;37611;51.794;21.590;2022-12-13T03:40:10;99099.35;;;-1.88;100.00
51526;BME280;37611;51.794;21.590;2022-12-13T03:44:11;99093.50;;;-1.85;100.00
51526;BME280;37611;51.794;21.590;2022-12-13T03:48:13;99095.48;;;-1.90;100.00
51526;BME280;37611;51.794;21.590;2022-12-13T03:52:16;99093.83;;;-1.93;100.00
51526;BME280;37611;51.794;21.590;2022-12-13T03:56:17;99092.20;;;-1.97;100.00
51526;BME280;37611;51.794;21.590;2022-12-13T04:00:20;99093.20;;;-2.05;100.00
51526;BME280;37611;51.794;21.590;2022-12-13T04:04:22;99096.02;;;-2.04;100.00
51526;BME280;37611;51.794;21.590;2022-12-13T04:08:24;99096.46;;;-2.00;100.00
51526;BME280;37611;51.794;21.590;2022-12-13T04:12:25;99102.90;;;-1.96;100.00
51526;BME280;37611;51.794;21.590;2022-12-13T04:16:46;99106.63;;;-1.92;100.00
51526;BME280;37611;51.794;21.590;2022-12-13T04:20:48;99110.55;;;-1.89;100.00
51526;BME280;37611;51.794;21.590;2022-12-13T04:24:50;99114.21;;;-1.90;100.00
51526;BME280;37611;51.794;21.590;2022-12-13T04:28:52;99112.14;;;-1.92;100.00
51526;BME280;37611;51.794;21.590;2022-12-13T04:32:54;99113.34;;;-1.98;100.00
51526;BME280;37611;51.794;21.590;2022-12-13T04:36:57;99116.70;;;-2.00;100.00
51526;BME280;37611;51.794;21.590;2022-12-13T04:41:06;99122.15;;;-1.96;100.00
51526;BME280;37611;51.794;21.590;2022-12-13T04:45:09;99119.91;;;-1.96;100.00
51526;BME280;37611;51.794;21.590;2022-12-13T04:49:15;99126.02;;;-1.92;100.00
51526;BME280;37611;51.794;21.590;2022-12-13T04:53:17;99121.05;;;-1.89;100.00
51526;BME280;37611;51.794;21.590;2022-12-13T04:57:19;99124.78;;;-1.89;100.00
51526;BME280;37611;51.794;21.590;2022-12-13T05:01:20;99122.60;;;-1.87;100.00
51526;BME280;37611;51.794;21.590;2022-12-13T05:05:22;99125.84;;;-1.87;100.00
51526;BME280;37611;51.794;21.590;2022-12-13T05:09:24;99119.45;;;-1.91;100.00
51526;BME280;37611;51.794;21.590;2022-12-13T05:13:26;99119.42;;;-1.94;100.00
51526;BME280;37611;51.794;21.590;2022-12-13T05:17:28;99121.23;;;-1.98;100.00
51526;BME280;37611;51.794;21.590;2022-12-13T05:21:30;99121.48;;;-2.00;100.00
51526;BME280;37611;51.794;21.590;2022-12-13T05:25:32;99125.05;;;-1.99;100.00
51526;BME280;37611;51.794;21.590;2022-12-13T05:29:34;99129.37;;;-1.96;100.00
51526;BME280;37611;51.794;21.590;2022-12-13T05:33:37;99131.23;;;-1.96;100.00
51526;BME280;37611;51.794;21.590;2022-12-13T05:37:39;99136.62;;;-1.94;100.00
51526;BME280;37611;51.794;21.590;2022-12-13T05:41:41;99142.95;;;-1.91;100.00
51526;BME280;37611;51.794;21.590;2022-12-13T05:45:43;99143.30;;;-1.94;100.00
51526;BME280;37611;51.794;21.590;2022-12-13T05:49:45;99145.79;;;-1.96;100.00
51526;BME280;37611;51.794;21.590;2022-12-13T05:53:46;99151.09;;;-1.98;100.00
51526;BME280;37611;51.794;21.590;2022-12-13T05:57:48;99155.60;;;-2.02;100.00
51526;BME280;37611;51.794;21.590;2022-12-13T06:01:50;99156.98;;;-2.08;100.00
51526;BME280;37611;51.794;21.590;2022-12-13T06:05:51;99161.15;;;-2.08;100.00
51526;BME280;37611;51.794;21.590;2022-12-13T06:09:53;99165.19;;;-2.13;100.00
51526;BME280;37611;51.794;21.590;2022-12-13T06:13:55;99170.67;;;-2.10;100.00
51526;BME280;37611;51.794;21.590;2022-12-13T06:18:00;99177.55;;;-2.10;100.00
51526;BME280;37611;51.794;21.590;2022-12-13T06:22:02;99183.67;;;-2.09;100.00
51526;BME280;37611;51.794;21.590;2022-12-13T06:26:05;99185.94;;;-2.10;100.00
51526;BME280;37611;51.794;21.590;2022-12-13T06:30:08;99187.70;;;-2.13;100.00
51526;BME280;37611;51.794;21.590;2022-12-13T06:34:10;99192.48;;;-2.19;100.00
51526;BME280;37611;51.794;21.590;2022-12-13T06:38:12;99201.50;;;-2.20;100.00
51526;BME280;37611;51.794;21.590;2022-12-13T06:42:16;99203.98;;;-2.19;100.00
51526;BME280;37611;51.794;21.590;2022-12-13T06:46:18;99208.39;;;-2.15;100.00
51526;BME280;37611;51.794;21.590;2022-12-13T06:50:20;99216.09;;;-2.12;100.00
51526;BME280;37611;51.794;21.590;2022-12-13T06:54:22;99219.49;;;-2.14;100.00
51526;BME280;37611;51.794;21.590;2022-12-13T06:58:23;99226.11;;;-2.19;100.00
51526;BME280;37611;51.794;21.590;2022-12-13T07:02:25;99234.84;;;-2.25;100.00
51526;BME280;37611;51.794;21.590;2022-12-13T07:06:29;99241.42;;;-2.29;100.00
51526;BME280;37611;51.794;21.590;2022-12-13T07:10:34;99241.64;;;-2.35;100.00
51526;BME280;37611;51.794;21.590;2022-12-13T07:14:38;99245.17;;;-2.34;100.00
51526;BME280;37611;51.794;21.590;2022-12-13T07:18:40;99247.64;;;-2.33;100.00
51526;BME280;37611;51.794;21.590;2022-12-13T07:22:42;99251.84;;;-2.31;100.00
51526;BME280;37611;51.794;21.590;2022-12-13T07:26:45;99259.55;;;-2.34;100.00
51526;BME280;37611;51.794;21.590;2022-12-13T07:30:48;99265.20;;;-2.34;100.00
51526;BME280;37611;51.794;21.590;2022-12-13T07:34:50;99270.86;;;-2.34;100.00
51526;BME280;37611;51.794;21.590;2022-12-13T07:38:56;99278.00;;;-2.38;100.00
51526;BME280;37611;51.794;21.590;2022-12-13T07:42:58;99279.45;;;-2.43;100.00
51526;BME280;37611;51.794;21.590;2022-12-13T07:47:00;99290.65;;;-2.38;100.00
51526;BME280;37611;51.794;21.590;2022-12-13T07:51:05;99293.52;;;-2.40;100.00
51526;BME280;37611;51.794;21.590;2022-12-13T07:55:08;99296.34;;;-2.36;100.00
51526;BME280;37611;51.794;21.590;2022-12-13T07:59:09;99303.17;;;-2.32;100.00
51526;BME280;37611;51.794;21.590;2022-12-13T08:03:12;99308.19;;;-2.33;100.00
51526;BME280;37611;51.794;21.590;2022-12-13T08:07:14;99310.34;;;-2.37;100.00
51526;BME280;37611;51.794;21.590;2022-12-13T08:11:16;99310.35;;;-2.44;100.00
51526;BME280;37611;51.794;21.590;2022-12-13T08:15:18;99318.61;;;-2.50;100.00
51526;BME280;37611;51.794;21.590;2022-12-13T08:19:20;99326.17;;;-2.51;100.00
51526;BME280;37611;51.794;21.590;2022-12-13T08:23:21;99327.79;;;-2.49;100.00
51526;BME280;37611;51.794;21.590;2022-12-13T08:27:23;99332.80;;;-2.44;100.00
51526;BME280;37611;51.794;21.590;2022-12-13T08:31:25;99332.93;;;-2.40;100.00
51526;BME280;37611;51.794;21.590;2022-12-13T08:35:27;99343.45;;;-2.40;100.00
51526;BME280;37611;51.794;21.590;2022-12-13T08:39:30;99344.08;;;-2.40;100.00
51526;BME280;37611;51.794;21.590;2022-12-13T08:43:35;99344.70;;;-2.41;100.00
51526;BME280;37611;51.794;21.590;2022-12-13T08:47:37;99350.64;;;-2.44;100.00
51526;BME280;37611;51.794;21.590;2022-12-13T08:51:39;99355.30;;;-2.44;100.00
51526;BME280;37611;51.794;21.590;2022-12-13T08:55:41;99357.65;;;-2.40;100.00
51526;BME280;37611;51.794;21.590;2022-12-13T08:59:42;99363.95;;;-2.39;100.00
51526;BME280;37611;51.794;21.590;2022-12-13T09:03:44;99369.42;;;-2.36;100.00
51526;BME280;37611;51.794;21.590;2022-12-13T09:07:46;99371.66;;;-2.31;100.00
51526;BME280;37611;51.794;21.590;2022-12-13T09:11:48;99373.84;;;-2.26;100.00
51526;BME280;37611;51.794;21.590;2022-12-13T09:15:49;99371.02;;;-2.25;100.00
51526;BME280;37611;51.794;21.590;2022-12-13T09:19:52;99374.61;;;-2.31;100.00
51526;BME280;37611;51.794;21.590;2022-12-13T09:23:54;99375.11;;;-2.43;100.00
51526;BME280;37611;51.794;21.590;2022-12-13T09:27:56;99381.20;;;-2.51;100.00
51526;BME280;37611;51.794;21.590;2022-12-13T09:31:57;99383.39;;;-2.59;100.00
51526;BME280;37611;51.794;21.590;2022-12-13T09:36:02;99387.96;;;-2.64;100.00
51526;BME280;37611;51.794;21.590;2022-12-13T09:40:06;99390.79;;;-2.73;100.00
51526;BME280;37611;51.794;21.590;2022-12-13T09:44:30;99393.79;;;-2.77;100.00
51526;BME280;37611;51.794;21.590;2022-12-13T09:48:34;99391.67;;;-2.76;100.00
51526;BME280;37611;51.794;21.590;2022-12-13T09:52:38;99393.45;;;-2.74;100.00
51526;BME280;37611;51.794;21.590;2022-12-13T09:56:42;99392.64;;;-2.75;100.00
51526;BME280;37611;51.794;21.590;2022-12-13T10:00:45;99384.98;;;-2.73;100.00
51526;BME280;37611;51.794;21.590;2022-12-13T10:04:47;99384.96;;;-2.79;100.00
51526;BME280;37611;51.794;21.590;2022-12-13T10:08:55;99387.73;;;-2.85;100.00
51526;BME280;37611;51.794;21.590;2022-12-13T10:17:18;99388.45;;;-2.70;100.00
51526;BME280;37611;51.794;21.590;2022-12-13T10:21:37;99393.84;;;-2.62;100.00
51526;BME280;37611;51.794;21.590;2022-12-13T10:25:59;99393.29;;;-2.61;100.00
51526;BME280;37611;51.794;21.590;2022-12-13T10:30:16;99394.55;;;-2.63;100.00
51526;BME280;37611;51.794;21.590;2022-12-13T10:34:22;99393.77;;;-2.67;100.00
51526;BME280;37611;51.794;21.590;2022-12-13T10:38:26;99397.08;;;-2.68;100.00
51526;BME280;37611;51.794;21.590;2022-12-13T10:42:29;99393.55;;;-2.69;100.00
51526;BME280;37611;51.794;21.590;2022-12-13T10:46:31;99399.14;;;-2.68;100.00
51526;BME280;37611;51.794;21.590;2022-12-13T10:50:33;99397.98;;;-2.66;100.00
51526;BME280;37611;51.794;21.590;2022-12-13T10:54:36;99390.70;;;-2.58;100.00
51526;BME280;37611;51.794;21.590;2022-12-13T10:58:41;99387.09;;;-2.55;100.00
51526;BME280;37611;51.794;21.590;2022-12-13T11:02:52;99381.71;;;-2.54;100.00
51526;BME280;37611;51.794;21.590;2022-12-13T11:06:57;99382.33;;;-2.56;100.00
51526;BME280;37611;51.794;21.590;2022-12-13T11:11:05;99379.63;;;-2.56;100.00
51526;BME280;37611;51.794;21.590;2022-12-13T11:15:15;99382.04;;;-2.63;100.00
51526;BME280;37611;51.794;21.590;2022-12-13T11:19:38;99386.46;;;-2.65;100.00
51526;BME280;37611;51.794;21.590;2022-12-13T11:23:44;99390.59;;;-2.68;100.00
51526;BME280;37611;51.794;21.590;2022-12-13T11:28:06;99388.22;;;-2.63;100.00
51526;BME280;37611;51.794;21.590;2022-12-13T11:40:55;99389.58;;;-2.50;100.00
51526;BME280;37611;51.794;21.590;2022-12-13T11:49:39;99389.51;;;-2.55;100.00
51526;BME280;37611;51.794;21.590;2022-12-13T11:53:47;99392.94;;;-2.58;100.00
51526;BME280;37611;51.794;21.590;2022-12-13T12:02:04;99401.95;;;-2.69;100.00
51526;BME280;37611;51.794;21.590;2022-12-13T12:10:42;99409.20;;;-2.64;100.00
51526;BME280;37611;51.794;21.590;2022-12-13T12:14:52;99411.77;;;-2.61;100.00
51526;BME280;37611;51.794;21.590;2022-12-13T12:18:57;99414.52;;;-2.61;100.00
51526;BME280;37611;51.794;21.590;2022-12-13T12:32:13;99425.79;;;-2.89;100.00
51526;BME280;37611;51.794;21.590;2022-12-13T12:36:33;99427.34;;;-2.92;100.00
51526;BME280;37611;51.794;21.590;2022-12-13T12:57:26;99441.46;;;-2.84;100.00
51526;BME280;37611;51.794;21.590;2022-12-13T13:05:41;99447.34;;;-2.85;100.00
51526;BME280;37611;51.794;21.590;2022-12-13T13:09:45;99446.01;;;-2.89;100.00
51526;BME280;37611;51.794;21.590;2022-12-13T13:18:01;99452.39;;;-2.97;100.00
51526;BME280;37611;51.794;21.590;2022-12-13T13:22:03;99449.77;;;-2.99;100.00
51526;BME280;37611;51.794;21.590;2022-12-13T13:26:07;99452.94;;;-3.04;100.00
51526;BME280;37611;51.794;21.590;2022-12-13T13:38:50;99468.98;;;-3.09;100.00
51526;BME280;37611;51.794;21.590;2022-12-13T13:43:06;99475.19;;;-3.17;100.00
51526;BME280;37611;51.794;21.590;2022-12-13T14:00:18;99480.17;;;-3.24;100.00
51526;BME280;37611;51.794;21.590;2022-12-13T14:08:35;99486.42;;;-3.36;100.00
51526;BME280;37611;51.794;21.590;2022-12-13T14:22:00;99495.75;;;-3.44;100.00
51526;BME280;37611;51.794;21.590;2022-12-13T14:30:31;99491.63;;;-3.51;100.00
51526;BME280;37611;51.794;21.590;2022-12-13T14:34:34;99490.33;;;-3.56;100.00
51526;BME280;37611;51.794;21.590;2022-12-13T14:38:36;99502.05;;;-3.57;100.00
51526;BME280;37611;51.794;21.590;2022-12-13T14:42:40;99504.14;;;-3.62;100.00
51526;BME280;37611;51.794;21.590;2022-12-13T14:46:50;99501.95;;;-3.66;100.00
51526;BME280;37611;51.794;21.590;2022-12-13T14:50:52;99498.70;;;-3.66;100.00
51526;BME280;37611;51.794;21.590;2022-12-13T14:54:56;99500.94;;;-3.63;100.00
51526;BME280;37611;51.794;21.590;2022-12-13T14:59:02;99500.78;;;-3.63;100.00
51526;BME280;37611;51.794;21.590;2022-12-13T15:03:05;99506.52;;;-3.61;100.00
51526;BME280;37611;51.794;21.590;2022-12-13T15:07:16;99505.67;;;-3.58;100.00
51526;BME280;37611;51.794;21.590;2022-12-13T15:11:21;99512.29;;;-3.60;100.00
51526;BME280;37611;51.794;21.590;2022-12-13T15:15:33;99512.80;;;-3.67;100.00
51526;BME280;37611;51.794;21.590;2022-12-13T15:19:41;99514.69;;;-3.71;100.00
51526;BME280;37611;51.794;21.590;2022-12-13T15:23:44;99510.75;;;-3.75;100.00
51526;BME280;37611;51.794;21.590;2022-12-13T15:27:48;99511.83;;;-3.79;100.00
51526;BME280;37611;51.794;21.590;2022-12-13T15:31:51;99510.74;;;-3.78;100.00
51526;BME280;37611;51.794;21.590;2022-12-13T15:40:13;99520.00;;;-3.85;100.00
51526;BME280;37611;51.794;21.590;2022-12-13T15:48:26;99528.95;;;-3.98;100.00
51526;BME280;37611;51.794;21.590;2022-12-13T15:52:37;99538.95;;;-4.03;100.00
51526;BME280;37611;51.794;21.590;2022-12-13T16:01:02;99539.33;;;-4.22;100.00
51526;BME280;37611;51.794;21.590;2022-12-13T16:05:08;99538.14;;;-4.30;100.00
51526;BME280;37611;51.794;21.590;2022-12-13T16:09:16;99541.83;;;-4.32;100.00
51526;BME280;37611;51.794;21.590;2022-12-13T16:13:31;99546.02;;;-4.30;100.00
51526;BME280;37611;51.794;21.590;2022-12-13T16:17:34;99552.98;;;-4.29;100.00
51526;BME280;37611;51.794;21.590;2022-12-13T16:21:36;99555.98;;;-4.35;100.00
51526;BME280;37611;51.794;21.590;2022-12-13T16:25:38;99558.31;;;-4.41;100.00
51526;BME280;37611;51.794;21.590;2022-12-13T16:29:39;99559.29;;;-4.44;100.00
51526;BME280;37611;51.794;21.590;2022-12-13T16:33:41;99555.98;;;-4.38;100.00
51526;BME280;37611;51.794;21.590;2022-12-13T16:37:44;99558.30;;;-4.37;100.00
51526;BME280;37611;51.794;21.590;2022-12-13T16:41:46;99558.24;;;-4.43;100.00
51526;BME280;37611;51.794;21.590;2022-12-13T16:45:49;99558.36;;;-4.50;100.00
51526;BME280;37611;51.794;21.590;2022-12-13T16:49:52;99566.40;;;-4.50;100.00
51526;BME280;37611;51.794;21.590;2022-12-13T16:53:54;99567.88;;;-4.49;100.00
51526;BME280;37611;51.794;21.590;2022-12-13T16:57:57;99568.04;;;-4.45;100.00
51526;BME280;37611;51.794;21.590;2022-12-13T17:02:00;99567.46;;;-4.36;100.00
51526;BME280;37611;51.794;21.590;2022-12-13T17:06:02;99571.78;;;-4.29;100.00
51526;BME280;37611;51.794;21.590;2022-12-13T17:10:05;99576.60;;;-4.30;100.00
51526;BME280;37611;51.794;21.590;2022-12-13T17:14:07;99578.63;;;-4.33;100.00
51526;BME280;37611;51.794;21.590;2022-12-13T17:18:09;99577.20;;;-4.40;100.00
51526;BME280;37611;51.794;21.590;2022-12-13T17:22:11;99578.60;;;-4.48;100.00
51526;BME280;37611;51.794;21.590;2022-12-13T17:26:13;99585.84;;;-4.53;100.00
51526;BME280;37611;51.794;21.590;2022-12-13T17:30:16;99587.25;;;-4.58;100.00
51526;BME280;37611;51.794;21.590;2022-12-13T17:34:19;99592.45;;;-4.56;100.00
51526;BME280;37611;51.794;21.590;2022-12-13T17:38:21;99594.41;;;-4.54;100.00
51526;BME280;37611;51.794;21.590;2022-12-13T17:42:22;99598.52;;;-4.46;100.00
51526;BME280;37611;51.794;21.590;2022-12-13T17:46:24;99597.17;;;-4.39;100.00
51526;BME280;37611;51.794;21.590;2022-12-13T17:50:26;99594.74;;;-4.38;100.00
51526;BME280;37611;51.794;21.590;2022-12-13T17:54:28;99594.34;;;-4.44;100.00
51526;BME280;37611;51.794;21.590;2022-12-13T17:58:30;99597.50;;;-4.51;100.00
51526;BME280;37611;51.794;21.590;2022-12-13T18:02:32;99606.11;;;-4.56;100.00
51526;BME280;37611;51.794;21.590;2022-12-13T18:06:39;99605.46;;;-4.60;100.00
51526;BME280;37611;51.794;21.590;2022-12-13T18:10:41;99606.49;;;-4.68;100.00
51526;BME280;37611;51.794;21.590;2022-12-13T18:14:42;99612.49;;;-4.69;100.00
51526;BME280;37611;51.794;21.590;2022-12-13T18:18:45;99615.49;;;-4.67;100.00
51526;BME280;37611;51.794;21.590;2022-12-13T18:22:47;99618.86;;;-4.70;100.00
51526;BME280;37611;51.794;21.590;2022-12-13T18:26:50;99624.08;;;-4.68;100.00
51526;BME280;37611;51.794;21.590;2022-12-13T18:30:52;99628.98;;;-4.71;100.00
51526;BME280;37611;51.794;21.590;2022-12-13T18:34:56;99626.60;;;-4.76;100.00
51526;BME280;37611;51.794;21.590;2022-12-13T18:38:58;99631.47;;;-4.77;100.00
51526;BME280;37611;51.794;21.590;2022-12-13T18:43:00;99636.12;;;-4.79;100.00
51526;BME280;37611;51.794;21.590;2022-12-13T18:47:02;99638.63;;;-4.81;100.00
51526;BME280;37611;51.794;21.590;2022-12-13T18:51:06;99636.15;;;-4.91;100.00
51526;BME280;37611;51.794;21.590;2022-12-13T18:55:09;99645.13;;;-4.98;100.00
51526;BME280;37611;51.794;21.590;2022-12-13T18:59:10;99641.44;;;-4.96;100.00
51526;BME280;37611;51.794;21.590;2022-12-13T19:03:12;99647.40;;;-4.91;100.00
51526;BME280;37611;51.794;21.590;2022-12-13T19:07:14;99648.49;;;-4.88;100.00
51526;BME280;37611;51.794;21.590;2022-12-13T19:11:17;99648.77;;;-4.87;100.00
51526;BME280;37611;51.794;21.590;2022-12-13T19:15:20;99651.33;;;-4.86;100.00
51526;BME280;37611;51.794;21.590;2022-12-13T19:19:22;99651.40;;;-4.93;100.00
51526;BME280;37611;51.794;21.590;2022-12-13T19:23:24;99660.61;;;-4.97;100.00
51526;BME280;37611;51.794;21.590;2022-12-13T19:27:26;99661.70;;;-5.02;100.00
51526;BME280;37611;51.794;21.590;2022-12-13T19:31:28;99659.76;;;-5.05;100.00
51526;BME280;37611;51.794;21.590;2022-12-13T19:35:30;99658.59;;;-5.05;100.00
51526;BME280;37611;51.794;21.590;2022-12-13T19:39:32;99662.48;;;-5.00;100.00
51526;BME280;37611;51.794;21.590;2022-12-13T19:43:33;99665.46;;;-4.99;100.00
51526;BME280;37611;51.794;21.590;2022-12-13T19:47:35;99666.98;;;-4.98;100.00
51526;BME280;37611;51.794;21.590;2022-12-13T19:51:37;99665.20;;;-5.00;100.00
51526;BME280;37611;51.794;21.590;2022-12-13T19:55:43;99668.20;;;-5.07;100.00
51526;BME280;37611;51.794;21.590;2022-12-13T19:59:47;99672.04;;;-5.13;100.00
51526;BME280;37611;51.794;21.590;2022-12-13T20:03:49;99675.26;;;-5.17;100.00
51526;BME280;37611;51.794;21.590;2022-12-13T20:07:51;99676.67;;;-5.23;100.00
51526;BME280;37611;51.794;21.590;2022-12-13T20:11:58;99672.54;;;-5.26;100.00
51526;BME280;37611;51.794;21.590;2022-12-13T20:16:00;99678.58;;;-5.28;100.00
51526;BME280;37611;51.794;21.590;2022-12-13T20:20:03;99679.04;;;-5.22;100.00
51526;BME280;37611;51.794;21.590;2022-12-13T20:24:05;99683.42;;;-5.20;100.00
51526;BME280;37611;51.794;21.590;2022-12-13T20:28:07;99686.09;;;-5.23;100.00
51526;BME280;37611;51.794;21.590;2022-12-13T20:32:09;99685.11;;;-5.24;100.00
51526;BME280;37611;51.794;21.590;2022-12-13T20:36:14;99684.25;;;-5.28;100.00
51526;BME280;37611;51.794;21.590;2022-12-13T20:40:16;99682.73;;;-5.33;100.00
51526;BME280;37611;51.794;21.590;2022-12-13T20:44:18;99683.59;;;-5.37;100.00
51526;BME280;37611;51.794;21.590;2022-12-13T20:48:20;99684.36;;;-5.49;100.00
51526;BME280;37611;51.794;21.590;2022-12-13T20:52:22;99688.81;;;-5.53;100.00
51526;BME280;37611;51.794;21.590;2022-12-13T20:56:30;99689.02;;;-5.55;100.00
51526;BME280;37611;51.794;21.590;2022-12-13T21:00:34;99691.89;;;-5.54;100.00
51526;BME280;37611;51.794;21.590;2022-12-13T21:04:36;99702.08;;;-5.53;100.00
51526;BME280;37611;51.794;21.590;2022-12-13T21:08:39;99697.30;;;-5.52;100.00
51526;BME280;37611;51.794;21.590;2022-12-13T21:12:54;99693.31;;;-5.59;100.00
51526;BME280;37611;51.794;21.590;2022-12-13T21:16:58;99693.93;;;-5.67;100.00
51526;BME280;37611;51.794;21.590;2022-12-13T21:21:00;99695.19;;;-5.73;100.00
51526;BME280;37611;51.794;21.590;2022-12-13T21:25:03;99700.60;;;-5.82;100.00
51526;BME280;37611;51.794;21.590;2022-12-13T21:29:06;99702.40;;;-5.89;100.00
51526;BME280;37611;51.794;21.590;2022-12-13T21:33:08;99703.73;;;-5.92;100.00
51526;BME280;37611;51.794;21.590;2022-12-13T21:37:10;99701.89;;;-5.93;100.00
51526;BME280;37611;51.794;21.590;2022-12-13T21:41:12;99698.46;;;-5.97;100.00
51526;BME280;37611;51.794;21.590;2022-12-13T21:45:13;99700.31;;;-6.01;100.00
51526;BME280;37611;51.794;21.590;2022-12-13T21:49:15;99705.24;;;-6.05;100.00
51526;BME280;37611;51.794;21.590;2022-12-13T21:53:17;99705.55;;;-6.18;100.00
51526;BME280;37611;51.794;21.590;2022-12-13T21:57:19;99706.11;;;-6.30;100.00
51526;BME280;37611;51.794;21.590;2022-12-13T22:06:03;99714.62;;;-6.59;100.00
51526;BME280;37611;51.794;21.590;2022-12-13T22:10:05;99717.89;;;-6.60;100.00
51526;BME280;37611;51.794;21.590;2022-12-13T22:14:07;99711.67;;;-6.58;100.00
51526;BME280;37611;51.794;21.590;2022-12-13T22:18:10;99708.45;;;-6.54;100.00
51526;BME280;37611;51.794;21.590;2022-12-13T22:22:11;99712.14;;;-6.52;100.00
51526;BME280;37611;51.794;21.590;2022-12-13T22:26:13;99714.19;;;-6.56;100.00
51526;BME280;37611;51.794;21.590;2022-12-13T22:30:15;99714.45;;;-6.59;100.00
51526;BME280;37611;51.794;21.590;2022-12-13T22:34:17;99712.71;;;-6.63;100.00
51526;BME280;37611;51.794;21.590;2022-12-13T22:38:19;99713.02;;;-6.73;100.00
51526;BME280;37611;51.794;21.590;2022-12-13T22:42:21;99709.14;;;-6.89;100.00
51526;BME280;37611;51.794;21.590;2022-12-13T22:46:22;99706.34;;;-7.02;100.00
51526;BME280;37611;51.794;21.590;2022-12-13T22:50:24;99711.08;;;-7.07;100.00
51526;BME280;37611;51.794;21.590;2022-12-13T22:54:26;99711.77;;;-7.13;100.00
51526;BME280;37611;51.794;21.590;2022-12-13T22:58:28;99712.23;;;-7.11;100.00
51526;BME280;37611;51.794;21.590;2022-12-13T23:02:30;99716.30;;;-7.11;100.00
51526;BME280;37611;51.794;21.590;2022-12-13T23:06:36;99713.10;;;-7.12;100.00
51526;BME280;37611;51.794;21.590;2022-12-13T23:10:38;99712.62;;;-7.18;100.00
51526;BME280;37611;51.794;21.590;2022-12-13T23:14:59;99714.06;;;-7.27;100.00
51526;BME280;37611;51.794;21.590;2022-12-13T23:19:04;99713.66;;;-7.36;100.00
51526;BME280;37611;51.794;21.590;2022-12-13T23:23:06;99720.42;;;-7.51;100.00